Time;durP1;ratioP1;P1;durP2;ratioP2;P2;SDS_P1;SDS_P2;PMS_P1;PMS_P2;Temp;Humidity;BMP_temperature;BMP_pressure;BME280_temperature;BME280_humidity;BME280_pressure;Samples;Min_cycle;Max_cycle;Signal;HPM_P1;HPM_P2
2022/01/14 00:05:46;;;;;;;1999.90;999.90;;;;;;;7.17;74.44;102672.59;15604405;28;20042;-64
2022/01/14 00:13:47;;;;;;;1999.90;999.90;;;;;;;7.00;75.08;102675.50;15611131;28;20042;-64
2022/01/14 00:21:21;;;;;;;1999.90;999.90;;;;;;;7.29;74.13;102672.44;15592640;28;20072;-64
2022/01/14 00:36:52;;;;;;;1999.90;999.90;;;;;;;7.47;73.68;102666.50;15619815;28;20429;-64
2022/01/14 00:44:30;;;;;;;1999.90;999.90;;;;;;;7.42;74.07;102656.19;15592977;28;20150;-64
2022/01/14 00:52:04;;;;;;;1999.90;999.90;;;;;;;7.47;73.77;102661.78;15601711;28;20049;-63
2022/01/14 01:00:16;;;;;;;1999.90;999.90;;;;;;;7.50;73.55;102674.28;15617769;28;20068;-64
2022/01/14 01:08:04;;;;;;;1999.90;999.90;;;;;;;7.24;74.73;102671.28;15599579;28;20061;-64
2022/01/14 01:15:39;;;;;;;1999.90;999.90;;;;;;;7.57;73.66;102668.50;15565750;28;20387;-62
2022/01/14 01:23:15;;;;;;;1999.90;999.90;;;;;;;7.58;73.65;102668.25;15601056;28;20041;-63
2022/01/14 01:39:06;;;;;;;1999.90;999.90;;;;;;;7.26;75.04;102651.59;15608393;28;20430;-62
2022/01/14 01:46:45;;;;;;;1999.90;999.90;;;;;;;7.49;74.35;102651.22;15615278;28;20475;-63
2022/01/14 01:54:26;;;;;;;1999.90;999.90;;;;;;;7.36;75.15;102646.13;15615080;28;20045;-63
2022/01/14 02:02:00;;;;;;;1999.90;999.90;;;;;;;7.27;75.60;102639.38;15607321;28;20044;-63
2022/01/14 02:09:34;;;;;;;1999.90;999.90;;;;;;;7.49;75.28;102634.56;15618832;28;20052;-63
2022/01/14 02:25:06;;;;;;;1999.90;999.90;;;;;;;7.67;74.58;102627.75;15624297;28;20029;-63
2022/01/14 02:32:40;;;;;;;1999.90;999.90;;;;;;;7.38;75.43;102635.56;15625449;28;20463;-63
2022/01/14 02:40:15;;;;;;;1999.90;999.90;;;;;;;7.15;77.11;102630.38;15622078;28;20045;-62
2022/01/14 02:47:48;;;;;;;1999.90;999.90;;;;;;;7.18;77.61;102621.50;15625727;28;20144;-64
2022/01/14 02:55:28;;;;;;;1999.90;999.90;;;;;;;7.22;78.07;102611.56;15620217;28;20050;-64
2022/01/14 03:03:06;;;;;;;1999.90;999.90;;;;;;;7.20;78.83;102608.22;15622847;28;20061;-64
2022/01/14 03:11:08;;;;;;;1999.90;999.90;;;;;;;7.24;78.87;102582.44;15606835;28;20061;-65
2022/01/14 03:18:54;;;;;;;1999.90;999.90;;;;;;;7.21;79.70;102573.81;15622431;28;20041;-65
2022/01/14 03:26:29;;;;;;;1999.90;999.90;;;;;;;6.93;81.07;102589.66;15620958;28;20556;-64
2022/01/14 03:34:04;;;;;;;1999.90;999.90;;;;;;;7.08;80.15;102586.16;15602929;28;20053;-63
2022/01/14 03:41:38;;;;;;;1999.90;999.90;;;;;;;7.15;81.02;102594.28;15607153;28;20140;-62
2022/01/14 03:49:11;;;;;;;1999.90;999.90;;;;;;;7.24;80.63;102567.72;15621012;28;20095;-64
2022/01/14 03:56:48;;;;;;;1999.90;999.90;;;;;;;6.93;81.87;102553.56;15611406;28;20045;-64
2022/01/14 04:04:24;;;;;;;1999.90;999.90;;;;;;;7.09;81.60;102528.72;15607793;28;20056;-64
2022/01/14 04:12:01;;;;;;;1999.90;999.90;;;;;;;6.78;82.88;102535.97;15618593;28;20054;-62
2022/01/14 04:19:34;;;;;;;1999.90;999.90;;;;;;;6.98;82.53;102530.56;15618850;28;20052;-64
2022/01/14 04:27:17;;;;;;;1999.90;999.90;;;;;;;6.88;82.44;102524.94;15609337;28;20033;-64
2022/01/14 04:34:58;;;;;;;1999.90;999.90;;;;;;;7.00;82.75;102522.81;15601570;28;20096;-63
2022/01/14 04:42:36;;;;;;;1999.90;999.90;;;;;;;7.10;82.39;102505.41;15617952;28;20144;-64
2022/01/14 04:50:09;;;;;;;1999.90;999.90;;;;;;;7.20;82.24;102513.81;15617615;28;20049;-64
2022/01/14 04:57:44;;;;;;;1999.90;999.90;;;;;;;7.32;81.43;102511.69;15616707;28;20048;-64
2022/01/14 05:05:29;;;;;;;1999.90;999.90;;;;;;;6.98;82.15;102502.81;15616818;28;20041;-63
2022/01/14 05:20:56;;;;;;;1999.90;999.90;;;;;;;6.77;83.27;102478.75;15842924;23;20147;-64
2022/01/14 05:28:40;;;;;;;1999.90;999.90;;;;;;;6.88;82.74;102475.00;15679122;28;20041;-63
2022/01/14 05:36:18;;;;;;;1999.90;999.90;;;;;;;6.74;82.65;102469.03;15671794;28;20570;-62
2022/01/14 05:44:01;;;;;;;1999.90;999.90;;;;;;;6.53;83.70;102464.41;15707622;28;20041;-64
2022/01/14 05:51:39;;;;;;;1999.90;999.90;;;;;;;6.36;84.60;102462.59;15712699;28;20064;-64
2022/01/14 05:59:12;;;;;;;1999.90;999.90;;;;;;;6.40;84.54;102462.91;15740934;28;20048;-63
2022/01/14 06:06:52;;;;;;;1999.90;999.90;;;;;;;6.52;83.45;102444.16;15681997;28;20140;-63
2022/01/14 06:14:31;;;;;;;1999.90;999.90;;;;;;;6.44;83.53;102460.44;15673846;28;20037;-64
2022/01/14 06:22:08;;;;;;;1999.90;999.90;;;;;;;6.35;84.20;102454.53;15713163;28;20417;-64
2022/01/14 06:29:44;;;;;;;1999.90;999.90;;;;;;;6.48;83.79;102443.03;15731569;28;20413;-63
2022/01/14 06:37:23;;;;;;;1999.90;999.90;;;;;;;6.42;82.98;102443.22;15700237;28;20041;-63
2022/01/14 06:45:19;;;;;;;1999.90;999.90;;;;;;;6.59;82.37;102455.88;15726000;28;20417;-63
2022/01/14 06:53:10;;;;;;;1999.90;999.90;;;;;;;6.52;81.67;102462.75;15730123;28;20079;-63
2022/01/14 07:00:47;;;;;;;1999.90;999.90;;;;;;;6.73;80.97;102475.69;15670427;28;20060;-63
2022/01/14 07:08:33;;;;;;;1999.90;999.90;;;;;;;6.79;79.49;102496.84;15668133;28;20518;-64
2022/01/14 07:16:09;;;;;;;1999.90;999.90;;;;;;;6.74;79.83;102490.41;15685681;28;20529;-64
2022/01/14 07:23:57;;;;;;;1999.90;999.90;;;;;;;6.88;79.11;102491.66;15685154;28;20044;-64
2022/01/14 07:31:33;;;;;;;1999.90;999.90;;;;;;;7.11;78.30;102495.97;15685048;28;20049;-63
2022/01/14 07:39:10;;;;;;;1999.90;999.90;;;;;;;7.15;78.34;102503.50;15683959;28;20486;-65
2022/01/14 07:46:47;;;;;;;1999.90;999.90;;;;;;;6.75;80.04;102486.50;15684158;28;20055;-60
2022/01/14 07:54:25;;;;;;;1999.90;999.90;;;;;;;6.81;80.05;102477.16;15682890;28;20048;-65
2022/01/14 08:01:59;;;;;;;1999.90;999.90;;;;;;;6.73;80.27;102466.53;15681673;28;20047;-65
2022/01/14 08:09:43;;;;;;;1999.90;999.90;;;;;;;6.77;80.23;102464.88;15675773;28;20045;-64
2022/01/14 08:17:18;;;;;;;1999.90;999.90;;;;;;;7.04;79.48;102476.75;15647582;28;20041;-64
2022/01/14 08:24:55;;;;;;;1999.90;999.90;;;;;;;6.82;80.58;102478.81;15661914;28;20045;-63
2022/01/14 08:32:28;;;;;;;1999.90;999.90;;;;;;;6.94;79.78;102452.53;15658939;28;20140;-65
2022/01/14 08:40:02;;;;;;;1999.90;999.90;;;;;;;6.64;80.94;102457.84;15675228;28;20462;-65
2022/01/14 08:47:34;;;;;;;1999.90;999.90;;;;;;;6.80;80.28;102461.59;15641343;28;20079;-68
2022/01/14 08:55:09;;;;;;;1999.90;999.90;;;;;;;6.98;79.44;102455.63;15676592;28;20065;-66
2022/01/14 09:02:42;;;;;;;1999.90;999.90;;;;;;;7.29;78.06;102459.41;15659234;28;20468;-67
2022/01/14 09:10:17;;;;;;;1999.90;999.90;;;;;;;7.33;77.96;102463.34;15673833;28;20049;-63
2022/01/14 09:17:50;;;;;;;1999.90;999.90;;;;;;;7.28;77.67;102463.31;15662464;28;20291;-64
2022/01/14 09:25:24;;;;;;;1999.90;999.90;;;;;;;7.10;78.65;102459.06;15671428;28;20053;-65
2022/01/14 09:32:57;;;;;;;1999.90;999.90;;;;;;;7.44;76.71;102453.97;15603664;28;20045;-65
2022/01/14 09:40:31;;;;;;;1999.90;999.90;;;;;;;7.61;76.33;102451.00;15586934;28;20465;-65
2022/01/14 09:48:04;;;;;;;1999.90;999.90;;;;;;;7.37;77.14;102452.53;15617803;28;20045;-65
2022/01/14 09:56:09;;;;;;;1999.90;999.90;;;;;;;7.19;77.40;102451.03;15599603;28;20044;-64
2022/01/14 10:03:54;;;;;;;1999.90;999.90;;;;;;;7.66;76.38;102439.91;15689834;28;20051;-64
2022/01/14 10:11:28;;;;;;;1999.90;999.90;;;;;;;7.84;75.85;102432.19;15677950;28;20041;-64
2022/01/14 10:19:02;;;;;;;1999.90;999.90;;;;;;;7.74;75.82;102416.31;15674847;28;20049;-65
2022/01/14 10:26:48;;;;;;;1999.90;999.90;;;;;;;7.80;76.16;102412.44;15656726;28;20694;-64
2022/01/14 10:34:24;;;;;;;1999.90;999.90;;;;;;;8.01;75.04;102432.78;15680655;28;20136;-64
2022/01/14 10:41:58;;;;;;;1999.90;999.90;;;;;;;8.26;74.08;102455.09;15686037;28;20513;-65
2022/01/14 10:49:37;;;;;;;1999.90;999.90;;;;;;;8.26;74.21;102438.41;15663856;28;20037;-64
2022/01/14 10:57:18;;;;;;;1999.90;999.90;;;;;;;8.10;75.12;102434.75;15680203;28;20041;-64
2022/01/14 11:05:01;;;;;;;1999.90;999.90;;;;;;;8.04;75.74;102424.75;15644379;28;20091;-64
2022/01/14 11:12:39;;;;;;;1999.90;999.90;;;;;;;8.09;75.32;102423.91;15681871;28;20055;-64
2022/01/14 11:20:28;;;;;;;1999.90;999.90;;;;;;;8.27;75.22;102394.75;15663518;28;20148;-62
2022/01/14 11:28:05;;;;;;;1999.90;999.90;;;;;;;8.03;76.02;102422.25;15672473;28;20095;-64
2022/01/14 11:35:39;;;;;;;1999.90;999.90;;;;;;;8.20;75.26;102413.63;15680709;28;20539;-65
2022/01/14 11:43:50;;;;;;;1999.90;999.90;;;;;;;8.41;74.98;102403.38;15661474;28;20041;-66
2022/01/14 11:51:25;;;;;;;1999.90;999.90;;;;;;;8.54;74.89;102391.69;15676992;28;20045;-65
2022/01/14 11:59:30;;;;;;;1999.90;999.90;;;;;;;8.41;75.76;102381.13;15697263;28;20049;-65
2022/01/14 12:07:05;;;;;;;1999.90;999.90;;;;;;;8.30;75.93;102363.59;15680541;28;20102;-61
2022/01/14 12:14:45;;;;;;;1999.90;999.90;;;;;;;8.76;75.34;102372.78;15666412;28;20053;-64
2022/01/14 12:22:23;;;;;;;1999.90;999.90;;;;;;;8.68;75.25;102359.44;15679739;28;20406;-67
2022/01/14 12:30:14;;;;;;;1999.90;999.90;;;;;;;8.85;75.00;102375.81;15644682;28;20075;-65
2022/01/14 12:37:52;;;;;;;1999.90;999.90;;;;;;;8.93;75.11;102356.56;15684416;28;20057;-66
2022/01/14 12:45:37;;;;;;;1999.90;999.90;;;;;;;8.72;76.23;102363.31;15656785;28;20091;-65
2022/01/14 12:53:17;;;;;;;1999.90;999.90;;;;;;;8.70;76.73;102359.13;15640800;28;20155;-65
2022/01/14 13:00:51;;;;;;;1999.90;999.90;;;;;;;8.62;77.03;102364.16;15659268;28;20127;-65
2022/01/14 13:08:29;;;;;;;1999.90;999.90;;;;;;;8.62;77.24;102361.38;15643173;28;20409;-65
2022/01/14 13:16:05;;;;;;;1999.90;999.90;;;;;;;8.84;76.76;102372.19;15663941;28;20063;-62
2022/01/14 13:23:40;;;;;;;1999.90;999.90;;;;;;;8.74;77.09;102377.75;15682869;28;20045;-69
2022/01/14 13:31:13;;;;;;;1999.90;999.90;;;;;;;8.92;76.06;102377.19;15678595;28;20461;-64
2022/01/14 13:38:47;;;;;;;1999.90;999.90;;;;;;;8.96;76.15;102377.44;15660867;28;20051;-64
2022/01/14 13:46:19;;;;;;;1999.90;999.90;;;;;;;9.23;75.28;102391.88;15638356;28;20045;-65
2022/01/14 13:53:55;;;;;;;1999.90;999.90;;;;;;;8.82;77.00;102395.84;15648442;28;20136;-64
2022/01/14 14:01:30;;;;;;;1999.90;999.90;;;;;;;8.93;77.57;102390.00;15648485;28;20060;-64
2022/01/14 14:09:10;;;;;;;1999.90;999.90;;;;;;;8.95;78.71;102411.97;15678312;28;20045;-63
2022/01/14 14:16:53;;;;;;;1999.90;999.90;;;;;;;8.82;79.66;102404.22;15662261;28;20091;-64
2022/01/14 14:24:30;;;;;;;1999.90;999.90;;;;;;;8.80;80.33;102414.78;15679082;28;20045;-64
2022/01/14 14:32:15;;;;;;;1999.90;999.90;;;;;;;8.72;80.71;102398.66;15668171;28;20635;-64
2022/01/14 14:39:50;;;;;;;1999.90;999.90;;;;;;;8.73;81.30;102401.16;15681857;28;20464;-64
2022/01/14 14:47:23;;;;;;;1999.90;999.90;;;;;;;8.81;80.97;102411.72;15646512;28;20235;-63
2022/01/14 14:54:57;;;;;;;1999.90;999.90;;;;;;;8.62;81.54;102405.06;15684040;28;20056;-67
2022/01/14 15:02:32;;;;;;;1999.90;999.90;;;;;;;8.41;82.84;102407.00;15671870;28;20498;-63
2022/01/14 15:10:10;;;;;;;1999.90;999.90;;;;;;;8.83;81.70;102422.56;15679745;28;20056;-64
2022/01/14 15:25:35;;;;;;;1999.90;999.90;;;;;;;9.05;80.26;102425.88;15677418;28;20068;-64
2022/01/14 15:33:08;;;;;;;1999.90;999.90;;;;;;;8.88;80.86;102434.56;15679676;28;20048;-64
2022/01/14 15:40:42;;;;;;;;;;;;;;;9.06;80.55;102441.47;15662394;28;20040;-65
2022/01/14 15:48:16;;;;;;;1999.90;999.90;;;;;;;8.97;81.32;102454.31;15678471;28;19920;-67
2022/01/14 15:55:52;;;;;;;1999.90;999.90;;;;;;;8.91;81.92;102458.22;15689613;28;20498;-65
2022/01/14 16:03:25;;;;;;;1999.90;999.90;;;;;;;8.64;82.56;102447.34;15646017;28;20461;-66
2022/01/14 16:10:59;;;;;;;1999.90;999.90;;;;;;;8.90;81.22;102457.38;15672072;28;20123;-65
2022/01/14 16:18:32;;;;;;;1999.90;999.90;;;;;;;9.30;79.54;102479.91;15688937;28;20044;-65
2022/01/14 16:26:09;;;;;;;1999.90;999.90;;;;;;;9.29;79.22;102470.69;15669351;28;20437;-65
2022/01/14 16:33:42;;;;;;;1999.90;999.90;;;;;;;9.05;80.04;102477.97;15674460;28;20132;-64
2022/01/14 16:41:16;;;;;;;1999.90;999.90;;;;;;;9.24;78.84;102485.47;15658952;28;20132;-65
2022/01/14 16:48:49;;;;;;;1999.90;999.90;;;;;;;9.31;78.44;102495.50;15694466;28;20102;-65
2022/01/14 16:56:23;;;;;;;1999.90;999.90;;;;;;;9.32;78.39;102500.78;15661851;28;20126;-67
2022/01/14 17:03:55;;;;;;;1999.90;999.90;;;;;;;9.29;78.52;102490.19;15662594;28;20069;-67
2022/01/14 17:11:30;;;;;;;1999.90;999.90;;;;;;;9.11;78.71;102493.56;15661160;28;20413;-65
2022/01/14 17:19:03;;;;;;;1999.90;999.90;;;;;;;9.41;77.78;102498.25;15674872;28;20049;-65
2022/01/14 17:26:49;;;;;;;1999.90;999.90;;;;;;;9.43;77.77;102493.22;15647044;28;20079;-66
2022/01/14 17:34:22;;;;;;;1999.90;999.90;;;;;;;9.17;78.44;102493.28;15631516;22;20521;-54
2022/01/14 17:41:58;;;;;;;1999.90;999.90;;;;;;;9.35;77.28;102491.84;15569151;28;20037;-54
2022/01/14 17:49:31;;;;;;;1999.90;999.90;;;;;;;9.68;75.81;102511.81;15621442;28;20053;-55
2022/01/14 17:57:06;;;;;;;1999.90;999.90;;;;;;;9.58;76.22;102532.19;15599181;28;20056;-54
2022/01/14 18:04:48;;;;;;;;;;;;;;;;;;;;;
2022/01/14 18:12:59;;;;;;;1999.90;999.90;;;;;;;9.49;76.94;102540.31;15588126;28;20041;-52
2022/01/14 18:20:36;;;;;;;1999.90;999.90;;;;;;;9.37;73.64;102539.75;15554526;28;20133;-58
2022/01/14 18:28:32;;;;;;;;;;;;;;;9.80;71.74;102545.81;15569585;28;20151;-53
2022/01/14 18:36:27;;;;;;;1999.90;999.90;;;;;;;9.52;70.57;102556.47;15586221;28;20021;-51
2022/01/14 18:44:00;;;;;;;1999.90;999.90;;;;;;;9.58;68.85;102562.84;15586641;28;20064;-56
2022/01/14 18:51:36;;;;;;;1999.90;999.90;;;;;;;9.55;69.30;102566.22;15579319;28;20068;-52
2022/01/14 18:59:10;;;;;;;1999.90;999.90;;;;;;;9.58;68.24;102567.59;15591847;28;20041;-57
2022/01/14 19:06:45;;;;;;;1999.90;999.90;;;;;;;9.68;66.66;102567.56;15564250;28;20503;-55
2022/01/14 19:14:19;;;;;;;1999.90;999.90;;;;;;;9.57;66.05;102575.13;15605537;28;20107;-52
2022/01/14 19:22:00;;;;;;;1999.90;999.90;;;;;;;9.60;64.34;102577.38;15559067;28;20050;-52
2022/01/14 19:29:44;;;;;;;1999.90;999.90;;;;;;;9.50;63.54;102580.16;15577533;28;20045;-56
2022/01/14 19:37:37;;;;;;;1999.90;999.90;;;;;;;9.26;64.13;102580.72;15579003;28;20527;-56
2022/01/14 19:45:17;;;;;;;1999.90;999.90;;;;;;;9.31;63.12;102573.50;15606631;28;20503;-55
2022/01/14 19:52:55;;;;;;;1999.90;999.90;;;;;;;9.41;62.85;102576.28;15615972;28;20107;-55
2022/01/14 20:00:29;;;;;;;1999.90;999.90;;;;;;;9.44;62.58;102584.06;15525204;28;20040;-56
2022/01/14 20:08:06;;;;;;;1999.90;999.90;;;;;;;9.24;62.41;102596.88;15553371;28;20915;-59
2022/01/14 20:15:39;;;;;;;1999.90;999.90;;;;;;;9.21;62.83;102594.66;15572641;28;20034;-52
2022/01/14 20:23:16;;;;;;;1999.90;999.90;;;;;;;9.43;62.50;102587.97;15570656;28;20050;-57
2022/01/14 20:30:55;;;;;;;1999.90;999.90;;;;;;;9.36;62.61;102584.63;15590830;28;20511;-55
2022/01/14 20:38:50;;;;;;;1999.90;999.90;;;;;;;9.29;62.68;102584.09;15561025;28;20118;-56
2022/01/14 20:46:23;;;;;;;1999.90;999.90;;;;;;;9.40;61.56;102594.94;15491378;28;20053;-53
2022/01/14 20:54:04;;;;;;;1999.90;999.90;;;;;;;9.17;62.30;102590.78;15558020;28;20088;-54
2022/01/14 21:01:37;;;;;;;1999.90;999.90;;;;;;;9.12;62.50;102603.84;15546337;28;20232;-62
2022/01/14 21:09:12;;;;;;;1999.90;999.90;;;;;;;9.08;62.13;102594.41;15571660;28;20123;-58
2022/01/14 21:16:45;;;;;;;1999.90;999.90;;;;;;;9.00;62.76;102586.59;15573586;28;20148;-60
2022/01/14 21:24:44;;;;;;;1999.90;999.90;;;;;;;8.65;63.99;102619.66;15549072;28;20137;-56
2022/01/14 21:32:28;;;;;;;1999.90;999.90;;;;;;;8.78;63.25;102621.06;15547687;28;20045;-56
2022/01/14 21:40:14;;;;;;;1999.90;999.90;;;;;;;8.90;63.52;102613.31;15580189;28;20061;-58
2022/01/14 21:47:50;;;;;;;1999.90;999.90;;;;;;;8.58;63.87;102616.28;15548546;28;20137;-61
2022/01/14 21:55:27;;;;;;;1999.90;999.90;;;;;;;8.62;63.13;102609.06;15559847;28;20049;-56
2022/01/14 22:03:00;;;;;;;1999.90;999.90;;;;;;;8.16;64.02;102608.03;15552818;28;20042;-56
2022/01/14 22:10:34;;;;;;;1999.90;999.90;;;;;;;8.03;64.33;102600.19;15589146;28;20038;-53
2022/01/14 22:18:08;;;;;;;1999.90;999.90;;;;;;;7.81;64.76;102594.75;15564632;28;20102;-58
2022/01/14 22:25:44;;;;;;;1999.90;999.90;;;;;;;7.45;65.75;102597.31;15551612;28;20038;-58
2022/01/14 22:33:19;;;;;;;1999.90;999.90;;;;;;;7.32;66.07;102595.00;15590424;28;20072;-55
2022/01/14 22:40:55;;;;;;;1999.90;999.90;;;;;;;7.17;66.81;102586.53;15575329;28;20045;-57
2022/01/14 22:48:37;;;;;;;1999.90;999.90;;;;;;;6.79;67.69;102602.28;15566493;28;20518;-59
2022/01/14 22:56:11;;;;;;;1999.90;999.90;;;;;;;6.88;67.28;102603.50;15588580;28;20068;-54
2022/01/14 23:03:47;;;;;;;1999.90;999.90;;;;;;;6.79;67.74;102599.50;15559230;28;20216;-53
2022/01/14 23:11:30;;;;;;;1999.90;999.90;;;;;;;6.69;67.94;102590.25;15600796;28;20049;-53
2022/01/14 23:19:06;;;;;;;1999.90;999.90;;;;;;;6.63;67.79;102590.19;15564193;28;20050;-51
2022/01/14 23:26:42;;;;;;;1999.90;999.90;;;;;;;6.49;68.64;102588.09;15574636;28;20042;-59
2022/01/14 23:34:15;;;;;;;1999.90;999.90;;;;;;;6.45;67.98;102581.38;15599663;23;20563;-66
2022/01/14 23:41:56;;;;;;;1999.90;999.90;;;;;;;6.48;68.98;102597.50;15578835;28;20162;-64
2022/01/14 23:49:34;;;;;;;1999.90;999.90;;;;;;;6.42;68.70;102587.44;15586686;28;20095;-66
2022/01/14 23:57:14;;;;;;;1999.90;999.90;;;;;;;6.48;68.76;102589.19;15562347;28;20084;-65
